sensor_id;sensor_type;location;lat;lon;timestamp;pressure;altitude;pressure_sealevel;temperature;humidity
20909;BME280;10614;53.198;6.570;2023-11-21T00:01:25;100969.00;;;8.50;100.00
20909;BME280;10614;53.198;6.570;2023-11-21T00:03:26;100946.59;;;8.38;100.00
20909;BME280;10614;53.198;6.570;2023-11-21T00:05:28;100960.50;;;8.42;100.00
20909;BME280;10614;53.198;6.570;2023-11-21T00:07:30;100964.66;;;8.49;100.00
20909;BME280;10614;53.198;6.570;2023-11-21T00:09:31;100981.75;;;8.62;100.00
20909;BME280;10614;53.198;6.570;2023-11-21T00:11:33;100977.38;;;8.63;100.00
20909;BME280;10614;53.198;6.570;2023-11-21T00:13:34;100971.31;;;8.61;100.00
20909;BME280;10614;53.198;6.570;2023-11-21T00:15:38;100963.56;;;8.56;100.00
20909;BME280;10614;53.198;6.570;2023-11-21T00:17:41;100954.97;;;8.51;100.00
20909;BME280;10614;53.198;6.570;2023-11-21T00:19:43;100970.31;;;8.65;100.00
20909;BME280;10614;53.198;6.570;2023-11-21T00:22:03;100944.50;;;8.50;100.00
20909;BME280;10614;53.198;6.570;2023-11-21T00:24:44;100929.97;;;8.38;100.00
20909;BME280;10614;53.198;6.570;2023-11-21T00:27:01;100936.09;;;8.38;100.00
20909;BME280;10614;53.198;6.570;2023-11-21T00:29:19;100937.06;;;8.36;100.00
20909;BME280;10614;53.198;6.570;2023-11-21T00:51:52;100994.16;;;8.57;100.00
20909;BME280;10614;53.198;6.570;2023-11-21T00:53:54;100999.41;;;8.57;100.00
20909;BME280;10614;53.198;6.570;2023-11-21T00:55:56;100983.28;;;8.40;100.00
20909;BME280;10614;53.198;6.570;2023-11-21T00:57:58;101008.22;;;8.55;100.00
20909;BME280;10614;53.198;6.570;2023-11-21T01:00:00;100997.09;;;8.47;100.00
20909;BME280;10614;53.198;6.570;2023-11-21T01:02:01;100990.19;;;8.42;100.00
20909;BME280;10614;53.198;6.570;2023-11-21T01:04:02;100995.44;;;8.42;100.00
20909;BME280;10614;53.198;6.570;2023-11-21T01:06:05;101011.75;;;8.54;100.00
20909;BME280;10614;53.198;6.570;2023-11-21T01:08:09;100979.19;;;8.30;100.00
20909;BME280;10614;53.198;6.570;2023-11-21T01:10:12;101023.91;;;8.56;100.00
20909;BME280;10614;53.198;6.570;2023-11-21T01:12:14;101011.03;;;8.49;100.00
20909;BME280;10614;53.198;6.570;2023-11-21T01:14:17;101016.03;;;8.56;100.00
20909;BME280;10614;53.198;6.570;2023-11-21T01:16:19;100993.81;;;8.38;100.00
20909;BME280;10614;53.198;6.570;2023-11-21T01:18:21;101028.22;;;8.59;100.00
20909;BME280;10614;53.198;6.570;2023-11-21T01:20:26;101030.81;;;8.60;100.00
20909;BME280;10614;53.198;6.570;2023-11-21T01:22:27;101005.88;;;8.45;100.00
20909;BME280;10614;53.198;6.570;2023-11-21T01:24:31;101025.81;;;8.51;100.00
20909;BME280;10614;53.198;6.570;2023-11-21T01:26:33;101051.75;;;8.62;100.00
20909;BME280;10614;53.198;6.570;2023-11-21T01:28:34;101026.78;;;8.47;100.00
20909;BME280;10614;53.198;6.570;2023-11-21T01:30:36;101040.50;;;8.57;100.00
20909;BME280;10614;53.198;6.570;2023-11-21T01:32:38;101065.69;;;8.64;100.00
20909;BME280;10614;53.198;6.570;2023-11-21T01:34:41;101051.91;;;8.56;100.00
20909;BME280;10614;53.198;6.570;2023-11-21T01:36:41;101042.41;;;8.52;100.00
20909;BME280;10614;53.198;6.570;2023-11-21T01:38:43;101069.06;;;8.68;100.00
20909;BME280;10614;53.198;6.570;2023-11-21T01:40:45;101041.56;;;8.51;100.00
20909;BME280;10614;53.198;6.570;2023-11-21T01:42:47;101075.19;;;8.68;100.00
20909;BME280;10614;53.198;6.570;2023-11-21T01:44:49;101056.19;;;8.60;100.00
20909;BME280;10614;53.198;6.570;2023-11-21T01:46:51;101070.84;;;8.67;100.00
20909;BME280;10614;53.198;6.570;2023-11-21T01:48:54;101057.88;;;8.61;100.00
20909;BME280;10614;53.198;6.570;2023-11-21T01:50:56;101072.53;;;8.70;100.00
20909;BME280;10614;53.198;6.570;2023-11-21T01:52:58;101047.50;;;8.58;100.00
20909;BME280;10614;53.198;6.570;2023-11-21T01:55:00;101049.25;;;8.57;100.00
20909;BME280;10614;53.198;6.570;2023-11-21T01:57:04;101089.00;;;8.75;100.00
20909;BME280;10614;53.198;6.570;2023-11-21T01:59:06;101080.22;;;8.76;100.00
20909;BME280;10614;53.198;6.570;2023-11-21T02:01:08;101074.28;;;8.69;100.00
20909;BME280;10614;53.198;6.570;2023-11-21T02:03:10;101084.56;;;8.77;100.00
20909;BME280;10614;53.198;6.570;2023-11-21T02:05:13;101090.66;;;8.77;100.00
20909;BME280;10614;53.198;6.570;2023-11-21T02:07:17;101087.19;;;8.77;100.00
20909;BME280;10614;53.198;6.570;2023-11-21T02:09:24;101088.16;;;8.74;100.00
20909;BME280;10614;53.198;6.570;2023-11-21T02:11:27;101078.84;;;8.62;100.00
20909;BME280;10614;53.198;6.570;2023-11-21T02:13:30;101079.66;;;8.64;100.00
20909;BME280;10614;53.198;6.570;2023-11-21T02:15:33;101090.94;;;8.68;100.00
20909;BME280;10614;53.198;6.570;2023-11-21T02:17:35;101091.84;;;8.67;100.00
20909;BME280;10614;53.198;6.570;2023-11-21T02:19:37;101115.97;;;8.80;100.00
20909;BME280;10614;53.198;6.570;2023-11-21T02:21:39;101116.09;;;8.75;100.00
20909;BME280;10614;53.198;6.570;2023-11-21T02:23:42;101110.13;;;8.70;100.00
20909;BME280;10614;53.198;6.570;2023-11-21T02:25:44;101127.34;;;8.80;100.00
20909;BME280;10614;53.198;6.570;2023-11-21T02:27:47;101130.91;;;8.78;100.00
20909;BME280;10614;53.198;6.570;2023-11-21T02:29:49;101130.81;;;8.81;100.00
20909;BME280;10614;53.198;6.570;2023-11-21T02:31:52;101138.69;;;8.81;100.00
20909;BME280;10614;53.198;6.570;2023-11-21T02:33:55;101142.22;;;8.80;100.00
20909;BME280;10614;53.198;6.570;2023-11-21T02:35:57;101139.91;;;8.69;100.00
20909;BME280;10614;53.198;6.570;2023-11-21T02:37:59;101154.47;;;8.79;100.00
20909;BME280;10614;53.198;6.570;2023-11-21T02:40:03;101148.47;;;8.76;100.00
20909;BME280;10614;53.198;6.570;2023-11-21T02:42:08;101143.16;;;8.77;100.00
20909;BME280;10614;53.198;6.570;2023-11-21T02:44:10;101143.34;;;8.71;100.00
20909;BME280;10614;53.198;6.570;2023-11-21T02:46:12;101140.66;;;8.73;100.00
20909;BME280;10614;53.198;6.570;2023-11-21T02:48:14;101137.09;;;8.75;100.00
20909;BME280;10614;53.198;6.570;2023-11-21T02:50:16;101135.41;;;8.73;100.00
20909;BME280;10614;53.198;6.570;2023-11-21T02:52:19;101112.34;;;8.53;100.00
20909;BME280;10614;53.198;6.570;2023-11-21T02:54:21;101148.59;;;8.71;100.00
20909;BME280;10614;53.198;6.570;2023-11-21T02:56:25;101123.50;;;8.61;100.00
20909;BME280;10614;53.198;6.570;2023-11-21T02:58:27;101137.41;;;8.64;100.00
20909;BME280;10614;53.198;6.570;2023-11-21T03:00:29;101146.88;;;8.70;100.00
20909;BME280;10614;53.198;6.570;2023-11-21T03:02:31;101104.91;;;8.36;100.00
20909;BME280;10614;53.198;6.570;2023-11-21T03:04:33;101147.91;;;8.64;100.00
20909;BME280;10614;53.198;6.570;2023-11-21T03:06:35;101166.16;;;8.69;100.00
20909;BME280;10614;53.198;6.570;2023-11-21T03:08:37;101160.91;;;8.69;100.00
20909;BME280;10614;53.198;6.570;2023-11-21T03:10:38;101166.16;;;8.69;100.00
20909;BME280;10614;53.198;6.570;2023-11-21T03:12:42;101110.97;;;8.38;100.00
20909;BME280;10614;53.198;6.570;2023-11-21T03:14:45;101142.06;;;8.53;100.00
20909;BME280;10614;53.198;6.570;2023-11-21T03:19:06;101119.72;;;8.38;100.00
20909;BME280;10614;53.198;6.570;2023-11-21T03:23:13;101150.81;;;8.54;100.00
20909;BME280;10614;53.198;6.570;2023-11-21T03:25:15;101164.63;;;8.60;100.00
20909;BME280;10614;53.198;6.570;2023-11-21T03:27:18;101181.84;;;8.71;100.00
20909;BME280;10614;53.198;6.570;2023-11-21T03:29:21;101135.31;;;8.44;100.00
20909;BME280;10614;53.198;6.570;2023-11-21T03:31:23;101159.59;;;8.53;100.00
20909;BME280;10614;53.198;6.570;2023-11-21T03:33:27;101191.44;;;8.72;100.00
20909;BME280;10614;53.198;6.570;2023-11-21T03:35:29;101195.84;;;8.71;100.00
20909;BME280;10614;53.198;6.570;2023-11-21T03:37:31;101196.72;;;8.70;100.00
20909;BME280;10614;53.198;6.570;2023-11-21T03:39:32;101176.06;;;8.58;100.00
20909;BME280;10614;53.198;6.570;2023-11-21T03:41:33;101147.47;;;8.47;100.00
20909;BME280;10614;53.198;6.570;2023-11-21T03:43:35;101189.78;;;8.68;100.00
20909;BME280;10614;53.198;6.570;2023-11-21T03:45:39;101170.00;;;8.56;100.00
20909;BME280;10614;53.198;6.570;2023-11-21T03:47:41;101170.13;;;8.51;100.00
20909;BME280;10614;53.198;6.570;2023-11-21T03:49:43;101161.69;;;8.38;100.00
20909;BME280;10614;53.198;6.570;2023-11-21T03:51:49;101165.25;;;8.36;100.00
20909;BME280;10614;53.198;6.570;2023-11-21T03:53:51;101192.78;;;8.54;100.00
20909;BME280;10614;53.198;6.570;2023-11-21T03:55:54;101204.91;;;8.59;100.00
20909;BME280;10614;53.198;6.570;2023-11-21T03:57:55;101204.84;;;8.61;100.00
20909;BME280;10614;53.198;6.570;2023-11-21T03:59:58;101215.41;;;8.59;100.00
20909;BME280;10614;53.198;6.570;2023-11-21T04:02:01;101195.59;;;8.48;100.00
20909;BME280;10614;53.198;6.570;2023-11-21T04:04:04;101202.34;;;8.56;100.00
20909;BME280;10614;53.198;6.570;2023-11-21T04:06:06;101220.59;;;8.61;100.00
20909;BME280;10614;53.198;6.570;2023-11-21T04:08:07;101221.56;;;8.57;100.00
20909;BME280;10614;53.198;6.570;2023-11-21T04:10:09;101226.69;;;8.61;100.00
20909;BME280;10614;53.198;6.570;2023-11-21T04:12:13;101233.72;;;8.61;100.00
20909;BME280;10614;53.198;6.570;2023-11-21T04:14:14;101219.97;;;8.51;100.00
20909;BME280;10614;53.198;6.570;2023-11-21T04:16:17;101240.84;;;8.56;100.00
20909;BME280;10614;53.198;6.570;2023-11-21T04:18:20;101240.84;;;8.56;100.00
20909;BME280;10614;53.198;6.570;2023-11-21T04:20:22;101252.00;;;8.64;100.00
20909;BME280;10614;53.198;6.570;2023-11-21T04:22:24;101244.16;;;8.62;100.00
20909;BME280;10614;53.198;6.570;2023-11-21T04:24:25;101259.81;;;8.65;100.00
20909;BME280;10614;53.198;6.570;2023-11-21T04:26:27;101234.94;;;8.48;100.00
20909;BME280;10614;53.198;6.570;2023-11-21T04:28:29;101249.69;;;8.52;100.00
20909;BME280;10614;53.198;6.570;2023-11-21T04:30:31;101241.91;;;8.47;100.00
20909;BME280;10614;53.198;6.570;2023-11-21T04:32:34;101275.56;;;8.65;100.00
20909;BME280;10614;53.198;6.570;2023-11-21T04:34:37;101244.63;;;8.44;100.00
20909;BME280;10614;53.198;6.570;2023-11-21T04:36:39;101261.06;;;8.52;100.00
20909;BME280;10614;53.198;6.570;2023-11-21T04:40:54;101266.34;;;8.51;100.00
20909;BME280;10614;53.198;6.570;2023-11-21T04:42:56;101299.16;;;8.67;100.00
20909;BME280;10614;53.198;6.570;2023-11-21T04:44:59;101288.91;;;8.56;100.00
20909;BME280;10614;53.198;6.570;2023-11-21T04:47:01;101307.03;;;8.67;100.00
20909;BME280;10614;53.198;6.570;2023-11-21T04:49:05;101305.53;;;8.57;100.00
20909;BME280;10614;53.198;6.570;2023-11-21T04:51:10;101270.06;;;8.40;100.00
20909;BME280;10614;53.198;6.570;2023-11-21T04:53:13;101328.91;;;8.66;100.00
20909;BME280;10614;53.198;6.570;2023-11-21T04:55:15;101327.22;;;8.63;100.00
20909;BME280;10614;53.198;6.570;2023-11-21T04:57:16;101313.44;;;8.55;100.00
20909;BME280;10614;53.198;6.570;2023-11-21T04:59:19;101315.28;;;8.52;100.00
20909;BME280;10614;53.198;6.570;2023-11-21T05:01:24;101323.16;;;8.52;100.00
20909;BME280;10614;53.198;6.570;2023-11-21T05:03:25;101339.53;;;8.61;100.00
20909;BME280;10614;53.198;6.570;2023-11-21T05:05:30;101341.28;;;8.62;100.00
20909;BME280;10614;53.198;6.570;2023-11-21T05:07:33;101346.53;;;8.61;100.00
20909;BME280;10614;53.198;6.570;2023-11-21T05:09:36;101342.25;;;8.57;100.00
20909;BME280;10614;53.198;6.570;2023-11-21T05:11:38;101334.63;;;8.48;100.00
20909;BME280;10614;53.198;6.570;2023-11-21T05:13:41;101349.28;;;8.56;100.00
20909;BME280;10614;53.198;6.570;2023-11-21T05:15:43;101367.50;;;8.64;100.00
20909;BME280;10614;53.198;6.570;2023-11-21T05:17:46;101345.13;;;8.48;100.00
20909;BME280;10614;53.198;6.570;2023-11-21T05:19:50;101361.66;;;8.51;100.00
20909;BME280;10614;53.198;6.570;2023-11-21T05:21:50;101374.53;;;8.62;100.00
20909;BME280;10614;53.198;6.570;2023-11-21T05:23:54;101373.63;;;8.63;100.00
20909;BME280;10614;53.198;6.570;2023-11-21T05:25:56;101363.38;;;8.52;100.00
20909;BME280;10614;53.198;6.570;2023-11-21T05:27:57;101386.59;;;8.69;100.00
20909;BME280;10614;53.198;6.570;2023-11-21T05:30:01;101356.50;;;8.47;100.00
20909;BME280;10614;53.198;6.570;2023-11-21T05:32:05;101371.19;;;8.54;100.00
20909;BME280;10614;53.198;6.570;2023-11-21T05:34:06;101387.69;;;8.59;100.00
20909;BME280;10614;53.198;6.570;2023-11-21T05:36:08;101387.75;;;8.57;100.00
20909;BME280;10614;53.198;6.570;2023-11-21T05:38:10;101379.19;;;8.49;100.00
20909;BME280;10614;53.198;6.570;2023-11-21T05:40:13;101387.84;;;8.53;100.00
20909;BME280;10614;53.198;6.570;2023-11-21T05:42:14;101406.03;;;8.62;100.00
20909;BME280;10614;53.198;6.570;2023-11-21T05:44:17;101413.09;;;8.57;100.00
20909;BME280;10614;53.198;6.570;2023-11-21T05:46:18;101429.59;;;8.63;100.00
20909;BME280;10614;53.198;6.570;2023-11-21T05:48:20;101412.41;;;8.50;100.00
20909;BME280;10614;53.198;6.570;2023-11-21T05:50:22;101429.56;;;8.65;100.00
20909;BME280;10614;53.198;6.570;2023-11-21T05:52:23;101440.91;;;8.65;100.00
20909;BME280;10614;53.198;6.570;2023-11-21T05:54:24;101403.72;;;8.47;100.00
20909;BME280;10614;53.198;6.570;2023-11-21T05:56:27;101410.75;;;8.46;100.00
20909;BME280;10614;53.198;6.570;2023-11-21T05:58:29;101433.28;;;8.55;100.00
20909;BME280;10614;53.198;6.570;2023-11-21T06:00:30;101451.41;;;8.65;100.00
20909;BME280;10614;53.198;6.570;2023-11-21T06:02:33;101451.50;;;8.61;100.00
20909;BME280;10614;53.198;6.570;2023-11-21T06:04:35;101462.72;;;8.69;100.00
20909;BME280;10614;53.198;6.570;2023-11-21T06:06:37;101437.72;;;8.53;100.00
20909;BME280;10614;53.198;6.570;2023-11-21T06:08:39;101455.03;;;8.60;100.00
20909;BME280;10614;53.198;6.570;2023-11-21T06:10:41;101469.66;;;8.72;100.00
20909;BME280;10614;53.198;6.570;2023-11-21T06:12:45;101436.94;;;8.48;100.00
20909;BME280;10614;53.198;6.570;2023-11-21T06:14:47;101476.63;;;8.73;100.00
20909;BME280;10614;53.198;6.570;2023-11-21T06:16:49;101472.47;;;8.64;100.00
20909;BME280;10614;53.198;6.570;2023-11-21T06:18:52;101460.34;;;8.57;100.00
20909;BME280;10614;53.198;6.570;2023-11-21T06:20:54;101488.88;;;8.74;100.00
20909;BME280;10614;53.198;6.570;2023-11-21T06:22:56;101489.78;;;8.71;100.00
20909;BME280;10614;53.198;6.570;2023-11-21T06:24:57;101480.44;;;8.58;100.00
20909;BME280;10614;53.198;6.570;2023-11-21T06:26:59;101494.34;;;8.61;100.00
20909;BME280;10614;53.198;6.570;2023-11-21T06:29:02;101481.41;;;8.54;100.00
20909;BME280;10614;53.198;6.570;2023-11-21T06:31:03;101502.28;;;8.60;100.00
20909;BME280;10614;53.198;6.570;2023-11-21T06:33:06;101498.06;;;8.53;100.00
20909;BME280;10614;53.198;6.570;2023-11-21T06:35:08;101511.97;;;8.56;100.00
20909;BME280;10614;53.198;6.570;2023-11-21T06:37:10;101511.09;;;8.56;100.00
20909;BME280;10614;53.198;6.570;2023-11-21T06:39:12;101513.81;;;8.53;100.00
20909;BME280;10614;53.198;6.570;2023-11-21T06:41:15;101497.44;;;8.38;100.00
20909;BME280;10614;53.198;6.570;2023-11-21T06:54:07;101511.72;;;8.23;100.00
20909;BME280;10614;53.198;6.570;2023-11-21T06:56:16;101534.19;;;8.38;100.00
20909;BME280;10614;53.198;6.570;2023-11-21T06:58:17;101507.47;;;8.18;100.00
20909;BME280;10614;53.198;6.570;2023-11-21T07:00:19;101548.13;;;8.40;100.00
20909;BME280;10614;53.198;6.570;2023-11-21T07:02:22;101534.34;;;8.29;100.00
20909;BME280;10614;53.198;6.570;2023-11-21T07:04:23;101549.94;;;8.37;100.00
20909;BME280;10614;53.198;6.570;2023-11-21T07:06:27;101552.63;;;8.34;100.00
20909;BME280;10614;53.198;6.570;2023-11-21T07:08:30;101555.28;;;8.32;100.00
20909;BME280;10614;53.198;6.570;2023-11-21T07:10:36;101532.00;;;8.15;100.00
20909;BME280;10614;53.198;6.570;2023-11-21T07:12:40;101584.75;;;8.47;100.00
20909;BME280;10614;53.198;6.570;2023-11-21T07:14:41;101555.38;;;8.26;100.00
20909;BME280;10614;53.198;6.570;2023-11-21T07:16:48;101579.72;;;8.36;100.00
20909;BME280;10614;53.198;6.570;2023-11-21T07:19:16;101560.59;;;8.29;100.00
20909;BME280;10614;53.198;6.570;2023-11-21T07:21:51;101581.50;;;8.34;100.00
20909;BME280;10614;53.198;6.570;2023-11-21T07:23:53;101605.00;;;8.40;100.00
20909;BME280;10614;53.198;6.570;2023-11-21T07:25:57;101604.13;;;8.38;100.00
20909;BME280;10614;53.198;6.570;2023-11-21T07:27:59;101618.94;;;8.43;100.00
20909;BME280;10614;53.198;6.570;2023-11-21T07:30:01;101618.94;;;8.43;100.00
20909;BME280;10614;53.198;6.570;2023-11-21T07:32:04;101616.44;;;8.34;100.00
20909;BME280;10614;53.198;6.570;2023-11-21T07:34:06;101629.44;;;8.43;100.00
20909;BME280;10614;53.198;6.570;2023-11-21T07:36:08;101631.22;;;8.41;100.00
20909;BME280;10614;53.198;6.570;2023-11-21T07:38:11;101630.34;;;8.41;100.00
20909;BME280;10614;53.198;6.570;2023-11-21T07:40:14;101623.47;;;8.32;100.00
20909;BME280;10614;53.198;6.570;2023-11-21T07:42:18;101640.81;;;8.42;100.00
20909;BME280;10614;53.198;6.570;2023-11-21T07:44:21;101647.81;;;8.42;100.00
20909;BME280;10614;53.198;6.570;2023-11-21T07:46:23;101629.63;;;8.31;100.00
20909;BME280;10614;53.198;6.570;2023-11-21T07:48:26;101659.22;;;8.41;100.00
20909;BME280;10614;53.198;6.570;2023-11-21T07:50:28;101624.53;;;8.22;100.00
20909;BME280;10614;53.198;6.570;2023-11-21T07:52:30;101654.00;;;8.36;100.00
20909;BME280;10614;53.198;6.570;2023-11-21T07:54:36;101658.31;;;8.40;100.00
20909;BME280;10614;53.198;6.570;2023-11-21T07:56:38;101667.00;;;8.45;100.00
20909;BME280;10614;53.198;6.570;2023-11-21T07:58:41;101674.81;;;8.47;100.00
20909;BME280;10614;53.198;6.570;2023-11-21T08:00:43;101673.09;;;8.46;100.00
20909;BME280;10614;53.198;6.570;2023-11-21T08:02:45;101681.84;;;8.45;100.00
20909;BME280;10614;53.198;6.570;2023-11-21T08:04:47;101685.38;;;8.45;100.00
20909;BME280;10614;53.198;6.570;2023-11-21T08:06:49;101693.25;;;8.45;100.00
20909;BME280;10614;53.198;6.570;2023-11-21T08:08:51;101692.34;;;8.45;100.00
20909;BME280;10614;53.198;6.570;2023-11-21T08:10:53;101684.66;;;8.33;100.00
20909;BME280;10614;53.198;6.570;2023-11-21T08:12:57;101711.59;;;8.45;100.00
20909;BME280;10614;53.198;6.570;2023-11-21T08:15:00;101709.84;;;8.44;100.00
20909;BME280;10614;53.198;6.570;2023-11-21T08:17:03;101697.78;;;8.33;100.00
20909;BME280;10614;53.198;6.570;2023-11-21T08:19:05;101730.84;;;8.44;100.00
20909;BME280;10614;53.198;6.570;2023-11-21T08:21:06;101707.50;;;8.28;100.00
20909;BME280;10614;53.198;6.570;2023-11-21T08:23:08;101717.91;;;8.32;100.00
20909;BME280;10614;53.198;6.570;2023-11-21T08:25:10;101718.81;;;8.31;100.00
20909;BME280;10614;53.198;6.570;2023-11-21T08:27:13;101726.50;;;8.43;100.00
20909;BME280;10614;53.198;6.570;2023-11-21T08:29:16;101727.38;;;8.44;100.00
20909;BME280;10614;53.198;6.570;2023-11-21T08:31:24;101737.00;;;8.43;100.00
20909;BME280;10614;53.198;6.570;2023-11-21T09:41:32;101859.47;;;8.41;100.00
20909;BME280;10614;53.198;6.570;2023-11-21T09:43:36;101862.94;;;8.43;100.00
20909;BME280;10614;53.198;6.570;2023-11-21T09:45:38;101846.47;;;8.31;100.00
20909;BME280;10614;53.198;6.570;2023-11-21T09:47:42;101874.31;;;8.42;100.00
20909;BME280;10614;53.198;6.570;2023-11-21T09:49:47;101856.09;;;8.30;100.00
20909;BME280;10614;53.198;6.570;2023-11-21T09:51:48;101877.84;;;8.38;100.00
20909;BME280;10614;53.198;6.570;2023-11-21T09:53:51;101888.22;;;8.49;100.00
20909;BME280;10614;53.198;6.570;2023-11-21T09:55:54;101861.22;;;8.39;100.00
20909;BME280;10614;53.198;6.570;2023-11-21T09:57:58;101859.50;;;8.35;100.00
20909;BME280;10614;53.198;6.570;2023-11-21T10:00:01;101889.97;;;8.47;100.00
20909;BME280;10614;53.198;6.570;2023-11-21T10:02:07;101895.16;;;8.55;100.00
20909;BME280;10614;53.198;6.570;2023-11-21T10:04:13;101888.25;;;8.46;100.00
20909;BME280;10614;53.198;6.570;2023-11-21T10:06:17;101915.06;;;8.68;100.00
20909;BME280;10614;53.198;6.570;2023-11-21T10:08:20;101905.31;;;8.76;100.00
20909;BME280;10614;53.198;6.570;2023-11-21T10:10:24;101918.31;;;8.85;100.00
20909;BME280;10614;53.198;6.570;2023-11-21T11:00:40;101932.50;;;8.72;100.00
20909;BME280;10614;53.198;6.570;2023-11-21T11:31:04;101970.88;;;8.79;100.00
20909;BME280;10614;53.198;6.570;2023-11-21T11:33:21;101987.28;;;8.95;100.00
20909;BME280;10614;53.198;6.570;2023-11-21T11:37:51;101995.09;;;9.00;100.00
20909;BME280;10614;53.198;6.570;2023-11-21T11:39:54;102030.69;;;9.19;100.00
20909;BME280;10614;53.198;6.570;2023-11-21T11:41:58;102006.41;;;9.05;100.00
20909;BME280;10614;53.198;6.570;2023-11-21T11:44:03;102014.28;;;9.05;100.00
20909;BME280;10614;53.198;6.570;2023-11-21T11:46:07;102045.63;;;9.17;100.00
20909;BME280;10614;53.198;6.570;2023-11-21T11:48:11;102036.16;;;9.07;100.00
20909;BME280;10614;53.198;6.570;2023-11-21T11:50:17;101997.16;;;8.79;100.00
20909;BME280;10614;53.198;6.570;2023-11-21T11:52:37;102040.47;;;9.11;100.00
20909;BME280;10614;53.198;6.570;2023-11-21T11:54:40;102010.00;;;8.98;100.00
20909;BME280;10614;53.198;6.570;2023-11-21T11:56:45;102023.78;;;9.14;100.00
20909;BME280;10614;53.198;6.570;2023-11-21T11:58:51;101995.91;;;9.05;100.00
20909;BME280;10614;53.198;6.570;2023-11-21T12:00:53;102048.78;;;9.39;100.00
20909;BME280;10614;53.198;6.570;2023-11-21T12:02:58;102058.19;;;9.52;100.00
20909;BME280;10614;53.198;6.570;2023-11-21T12:05:09;102045.81;;;9.61;100.00
20909;BME280;10614;53.198;6.570;2023-11-21T12:07:13;102032.72;;;9.58;100.00
20909;BME280;10614;53.198;6.570;2023-11-21T12:09:18;102059.44;;;9.84;100.00
20909;BME280;10614;53.198;6.570;2023-11-21T12:11:20;102075.13;;;9.90;100.00
20909;BME280;10614;53.198;6.570;2023-11-21T12:13:31;102072.38;;;9.97;100.00
20909;BME280;10614;53.198;6.570;2023-11-21T12:15:38;102056.03;;;9.79;100.00
20909;BME280;10614;53.198;6.570;2023-11-21T12:17:49;102035.22;;;9.65;100.00
20909;BME280;10614;53.198;6.570;2023-11-21T12:19:53;102087.44;;;9.87;100.00
20909;BME280;10614;53.198;6.570;2023-11-21T12:21:54;102086.59;;;9.85;100.00
20909;BME280;10614;53.198;6.570;2023-11-21T12:24:01;102065.78;;;9.72;100.00
20909;BME280;10614;53.198;6.570;2023-11-21T12:26:16;102056.28;;;9.64;100.00
20909;BME280;10614;53.198;6.570;2023-11-21T12:28:18;102053.56;;;9.68;100.00
20909;BME280;10614;53.198;6.570;2023-11-21T12:30:23;102091.78;;;9.88;100.00
20909;BME280;10614;53.198;6.570;2023-11-21T12:32:28;102086.53;;;9.88;100.00
20909;BME280;10614;53.198;6.570;2023-11-21T12:34:30;102057.91;;;9.71;100.00
20909;BME280;10614;53.198;6.570;2023-11-21T12:36:33;102077.91;;;9.80;100.00
20909;BME280;10614;53.198;6.570;2023-11-21T12:38:35;102101.59;;;9.78;100.00
20909;BME280;10614;53.198;6.570;2023-11-21T12:40:36;102072.25;;;9.51;100.00
20909;BME280;10614;53.198;6.570;2023-11-21T12:42:39;102082.69;;;9.56;100.00
20909;BME280;10614;53.198;6.570;2023-11-21T12:44:42;102101.94;;;9.58;100.00
20909;BME280;10614;53.198;6.570;2023-11-21T12:46:46;102089.81;;;9.49;100.00
20909;BME280;10614;53.198;6.570;2023-11-21T12:48:47;102080.28;;;9.42;100.00
20909;BME280;10614;53.198;6.570;2023-11-21T12:50:49;102087.09;;;9.54;100.00
20909;BME280;10614;53.198;6.570;2023-11-21T12:52:58;102094.78;;;9.66;100.00
20909;BME280;10614;53.198;6.570;2023-11-21T12:55:00;102118.34;;;9.74;100.00
20909;BME280;10614;53.198;6.570;2023-11-21T12:57:03;102106.16;;;9.68;100.00
20909;BME280;10614;53.198;6.570;2023-11-21T12:59:08;102087.88;;;9.59;100.00
20909;BME280;10614;53.198;6.570;2023-11-21T13:01:14;102120.97;;;9.74;100.00
20909;BME280;10614;53.198;6.570;2023-11-21T13:03:19;102121.00;;;9.72;100.00
20909;BME280;10614;53.198;6.570;2023-11-21T13:05:27;102114.09;;;9.65;100.00
20909;BME280;10614;53.198;6.570;2023-11-21T13:07:28;102110.59;;;9.65;100.00
20909;BME280;10614;53.198;6.570;2023-11-21T13:09:32;102129.72;;;9.75;100.00
20909;BME280;10614;53.198;6.570;2023-11-21T13:11:34;102107.09;;;9.64;100.00
20909;BME280;10614;53.198;6.570;2023-11-21T13:13:40;102109.69;;;9.67;100.00
20909;BME280;10614;53.198;6.570;2023-11-21T13:15:47;102126.19;;;9.77;100.00
20909;BME280;10614;53.198;6.570;2023-11-21T13:17:49;102133.06;;;9.84;100.00
20909;BME280;10614;53.198;6.570;2023-11-21T13:19:51;102120.06;;;9.75;100.00
20909;BME280;10614;53.198;6.570;2023-11-21T13:28:27;102113.03;;;9.76;100.00
20909;BME280;10614;53.198;6.570;2023-11-21T13:30:33;102126.13;;;9.80;100.00
20909;BME280;10614;53.198;6.570;2023-11-21T13:56:28;102192.44;;;9.40;100.00
20909;BME280;10614;53.198;6.570;2023-11-21T13:58:30;102195.97;;;9.38;100.00
20909;BME280;10614;53.198;6.570;2023-11-21T14:00:42;102206.59;;;9.28;100.00
20909;BME280;10614;53.198;6.570;2023-11-21T14:02:45;102169.25;;;9.05;100.00
20909;BME280;10614;53.198;6.570;2023-11-21T14:04:46;102195.41;;;9.16;100.00
20909;BME280;10614;53.198;6.570;2023-11-21T14:06:56;102181.56;;;8.98;100.00
20909;BME280;10614;53.198;6.570;2023-11-21T14:09:01;102185.97;;;8.98;100.00
20909;BME280;10614;53.198;6.570;2023-11-21T14:11:07;102198.06;;;9.11;100.00
20909;BME280;10614;53.198;6.570;2023-11-21T14:13:11;102180.75;;;8.95;100.00
20909;BME280;10614;53.198;6.570;2023-11-21T14:15:13;102214.75;;;9.08;100.00
20909;BME280;10614;53.198;6.570;2023-11-21T14:17:19;102198.28;;;8.93;100.00
20909;BME280;10614;53.198;6.570;2023-11-21T14:19:22;102219.22;;;8.99;100.00
20909;BME280;10614;53.198;6.570;2023-11-21T14:21:27;102222.75;;;8.98;100.00